Time;durP1;ratioP1;P1;durP2;ratioP2;P2;SDS_P1;SDS_P2;PMS_P1;PMS_P2;Temp;Humidity;BMP_temperature;BMP_pressure;BME280_temperature;BME280_humidity;BME280_pressure;Samples;Min_cycle;Max_cycle;Signal;HPM_P1;HPM_P2
2022/01/24 00:01:23;;;;;;;50.95;34.55;;;;;;;5.06;88.27;103344.97;5055902;28;20111;-91
2022/01/24 00:03:55;;;;;;;51.90;34.20;;;;;;;4.77;87.26;103295.19;5055602;28;20491;-91
2022/01/24 00:06:21;;;;;;;46.53;31.08;;;;;;;4.65;85.33;103270.97;5088820;28;20017;-90
2022/01/24 00:08:49;;;;;;;43.72;30.33;;;;;;;5.00;84.50;103331.97;5072037;28;20165;-91
2022/01/24 00:11:19;;;;;;;47.88;31.48;;;;;;;4.77;84.27;103288.00;5071521;28;20432;-91
2022/01/24 00:27:13;;;;;;;34.60;24.15;;;;;;;4.60;80.18;103289.28;5073244;28;20027;-92
2022/01/24 00:29:39;;;;;;;33.80;22.63;;;;;;;4.57;79.75;103282.28;5055595;28;20036;-90
2022/01/24 00:32:05;;;;;;;34.28;23.42;;;;;;;4.86;79.31;103332.19;5071996;28;20457;-90
2022/01/24 00:34:30;;;;;;;32.88;22.48;;;;;;;4.69;78.54;103310.09;5071441;28;20020;-90
2022/01/24 00:36:56;;;;;;;35.60;23.50;;;;;;;4.69;79.12;103304.72;5071529;28;20063;-90
2022/01/24 00:39:30;;;;;;;32.78;22.98;;;;;;;4.58;79.62;103275.09;5072242;28;20376;-91
2022/01/24 00:47:18;;;;;;;36.30;24.52;;;;;;;4.85;79.57;103319.69;5057607;28;20506;-90
2022/01/24 00:55:11;;;;;;;36.42;23.77;;;;;;;4.45;79.02;103258.19;5072895;28;20078;-90
2022/01/24 00:57:37;;;;;;;37.42;24.75;;;;;;;4.71;79.34;103305.47;5070903;28;20029;-91
2022/01/24 01:00:04;;;;;;;34.65;23.95;;;;;;;4.86;79.22;103333.03;5071453;28;20158;-91
2022/01/24 01:02:29;;;;;;;36.03;24.77;;;;;;;4.70;79.39;103300.22;5072250;28;20060;-90
2022/01/24 01:05:07;;;;;;;35.50;24.23;;;;;;;4.48;79.87;103257.94;5055146;28;20028;-90
2022/01/24 01:18:50;;;;;;;35.25;23.15;;;;;;;4.45;78.03;103252.81;5057960;28;20094;-91
2022/01/24 01:21:16;;;;;;;32.47;22.67;;;;;;;4.71;78.38;103293.84;5071476;28;20419;-90
2022/01/24 01:23:48;;;;;;;33.47;22.92;;;;;;;4.67;78.69;103295.06;5074595;28;20020;-91
2022/01/24 01:26:22;;;;;;;33.57;23.03;;;;;;;4.44;78.50;103249.25;5075365;28;20020;-90
2022/01/24 01:28:52;;;;;;;33.95;23.13;;;;;;;4.86;79.04;103310.66;5076194;28;20278;-90
2022/01/24 01:31:51;;;;;;;34.70;23.60;;;;;;;4.46;77.96;103241.06;5074274;28;20051;-90
2022/01/24 01:39:36;;;;;;;33.03;23.58;;;;;;;4.57;78.75;103263.47;5075157;28;20025;-89
2022/01/24 01:55:40;;;;;;;33.45;22.88;;;;;;;4.64;78.63;103289.91;5074296;28;20052;-90
2022/01/24 01:58:14;;;;;;;30.45;21.35;;;;;;;4.57;78.29;103278.75;5074485;28;20060;-90
2022/01/24 02:00:47;;;;;;;29.20;20.88;;;;;;;4.56;78.23;103277.91;5074725;28;20650;-91
2022/01/24 02:03:13;;;;;;;30.63;21.10;;;;;;;4.61;78.04;103290.16;5075954;28;20091;-91
2022/01/24 02:05:38;;;;;;;32.95;21.10;;;;;;;4.49;78.13;103260.53;5074578;28;20021;-91
2022/01/24 02:08:05;;;;;;;31.45;22.05;;;;;;;4.35;78.43;103241.88;5057972;28;20028;-91
2022/01/24 02:10:35;;;;;;;32.80;21.65;;;;;;;4.60;78.29;103285.75;5074613;28;20025;-91
2022/01/24 02:13:04;;;;;;;31.67;21.35;;;;;;;4.53;77.87;103269.19;5074281;28;20376;-90
2022/01/24 02:18:47;;;;;;;33.58;21.95;;;;;;;4.29;78.96;103231.59;5041581;28;20024;-90
2022/01/24 02:21:40;;;;;;;31.00;21.75;;;;;;;4.36;79.24;103239.06;5074622;28;20353;-91
2022/01/24 02:24:10;;;;;;;33.15;22.10;;;;;;;4.59;78.64;103266.03;5073908;28;20111;-91
2022/01/24 02:26:35;;;;;;;35.35;22.02;;;;;;;4.31;78.68;103219.78;5074016;28;20013;-90
2022/01/24 02:31:50;;;;;;;33.15;21.92;;;;;;;4.35;79.09;103231.13;5074613;28;20392;-90
2022/01/24 02:34:36;;;;;;;30.80;21.50;;;;;;;4.53;79.69;103255.75;5074876;28;20020;-91
2022/01/24 02:37:11;;;;;;;32.30;22.27;;;;;;;4.58;78.87;103269.72;5091292;28;20532;-91
2022/01/24 02:53:25;;;;;;;32.72;22.35;;;;;;;4.72;78.86;103284.81;5075062;28;20059;-90
2022/01/24 02:55:53;;;;;;;34.30;22.98;;;;;;;4.50;78.88;103243.44;5073290;28;20468;-90
2022/01/24 02:58:19;;;;;;;32.55;22.63;;;;;;;4.33;78.84;103225.88;5073077;28;20025;-91
2022/01/24 03:00:47;;;;;;;32.03;21.58;;;;;;;4.68;78.07;103280.63;5090723;28;20517;-91
2022/01/24 03:03:16;;;;;;;33.90;22.67;;;;;;;4.57;77.58;103282.28;5056921;28;20031;-91
2022/01/24 03:05:42;;;;;;;32.83;23.02;;;;;;;4.22;79.06;103223.13;5073542;28;20077;-90
2022/01/24 03:08:08;;;;;;;32.88;23.10;;;;;;;4.36;78.76;103239.06;5073437;28;20407;-90
2022/01/24 03:10:40;;;;;;;31.10;22.08;;;;;;;4.28;78.16;103229.88;5072911;28;20027;-90
2022/01/24 03:13:18;;;;;;;;;;;;;;;4.69;80.35;103279.66;5073692;28;20056;-90
2022/01/24 03:15:50;;;;;;;33.00;21.63;;;;;;;4.27;77.88;103217.44;5089932;28;20256;-91
2022/01/24 03:18:17;;;;;;;34.22;22.00;;;;;;;4.35;77.84;103236.50;5073140;28;20027;-91
2022/01/24 03:20:43;;;;;;;32.47;23.05;;;;;;;4.47;77.91;103253.53;5056500;28;20032;-91
2022/01/24 03:23:11;;;;;;;33.30;23.65;;;;;;;4.20;77.33;103206.28;5073443;28;20024;-91
2022/01/24 03:25:40;;;;;;;33.08;23.23;;;;;;;4.41;77.79;103235.19;5073214;28;20027;-90
2022/01/24 03:28:06;;;;;;;33.25;23.70;;;;;;;4.24;77.75;103215.81;5073688;28;20127;-90
2022/01/24 03:30:35;;;;;;;35.83;23.48;;;;;;;4.43;77.67;103244.00;5072979;28;20024;-91
2022/01/24 03:33:01;;;;;;;33.25;23.33;;;;;;;4.15;77.93;103192.31;5073213;28;20025;-90
2022/01/24 03:35:27;;;;;;;34.55;23.58;;;;;;;4.16;78.09;103194.03;5073219;28;20024;-91
2022/01/24 03:37:55;;;;;;;33.42;22.85;;;;;;;4.45;78.41;103263.56;5074186;28;20024;-90
2022/01/24 03:40:24;;;;;;;33.42;22.23;;;;;;;4.33;78.51;103239.31;5073008;28;20027;-90
2022/01/24 03:42:53;;;;;;;32.22;22.77;;;;;;;4.19;78.25;103231.41;5056282;28;20040;-90
2022/01/24 03:45:25;;;;;;;32.95;23.00;;;;;;;4.36;78.59;103251.66;5072306;28;20024;-91
2022/01/24 03:48:29;;;;;;;37.33;24.35;;;;;;;4.38;78.37;103255.97;5072300;28;20388;-91
2022/01/24 03:50:38;;;;;;;35.13;25.05;;;;;;;4.07;78.20;103208.16;5073015;28;20035;-91
2022/01/24 03:53:04;;;;;;;37.13;25.55;;;;;;;4.09;77.93;103198.16;5072686;28;20013;-91
2022/01/24 03:55:30;;;;;;;33.35;24.35;;;;;;;4.31;77.85;103241.28;5089380;28;20048;-91
2022/01/24 03:57:56;;;;;;;34.30;24.17;;;;;;;4.17;78.88;103211.88;5072889;28;20024;-91
2022/01/24 04:00:22;;;;;;;34.00;23.48;;;;;;;4.15;78.66;103203.06;5072624;28;20037;-91
2022/01/24 04:02:47;;;;;;;34.80;24.02;;;;;;;4.13;77.88;103203.16;5072593;28;20150;-91
2022/01/24 04:05:13;;;;;;;33.85;23.83;;;;;;;4.04;77.38;103202.06;5055973;28;20078;-90
2022/01/24 04:07:42;;;;;;;33.85;23.02;;;;;;;4.13;77.80;103221.97;5072221;28;20020;-91
2022/01/24 04:10:08;;;;;;;32.67;23.20;;;;;;;3.94;77.49;103202.84;5072769;28;20024;-91
2022/01/24 04:12:39;;;;;;;32.15;22.48;;;;;;;3.88;78.10;103196.09;5072212;28;20445;-91
2022/01/24 04:15:12;;;;;;;33.80;23.53;;;;;;;4.28;77.50;103263.00;5072333;28;20028;-91
2022/01/24 04:17:44;;;;;;;33.03;23.58;;;;;;;4.24;78.28;103261.50;5056968;28;20278;-91
2022/01/24 04:22:57;;;;;;;34.72;24.48;;;;;;;4.11;79.02;103242.75;5073912;28;20038;-91
2022/01/24 04:25:26;;;;;;;35.55;23.77;;;;;;;3.90;78.20;103195.97;5055704;28;20525;-91
2022/01/24 04:27:53;;;;;;;32.45;22.88;;;;;;;4.26;78.01;103250.66;5072632;28;20020;-91
2022/01/24 04:30:20;;;;;;;31.60;22.65;;;;;;;4.07;77.15;103211.69;5072501;28;20107;-91
2022/01/24 04:32:50;;;;;;;30.65;22.15;;;;;;;4.03;78.20;103210.22;5089101;28;20024;-91
2022/01/24 04:35:16;;;;;;;31.98;22.23;;;;;;;3.96;77.21;103201.75;5056063;28;20372;-92
2022/01/24 04:37:41;;;;;;;32.78;22.90;;;;;;;3.94;77.71;103206.41;5055387;28;20028;-90
2022/01/24 04:40:07;;;;;;;33.17;23.27;;;;;;;4.22;78.16;103255.38;5072828;28;20023;-91
2022/01/24 04:43:00;;;;;;;31.05;22.73;;;;;;;4.19;78.12;103269.03;5071774;28;20143;-91
2022/01/24 04:53:48;;;;;;;34.95;23.20;;;;;;;4.13;78.50;103264.97;5073034;28;20468;-90
2022/01/24 04:56:02;;;;;;;33.70;23.63;;;;;;;4.06;78.87;103246.75;5071849;28;20052;-91
2022/01/24 04:58:27;;;;;;;32.13;22.70;;;;;;;4.00;78.34;103240.88;5071550;28;20475;-91
2022/01/24 05:00:52;;;;;;;34.38;23.20;;;;;;;4.10;78.21;103264.34;5038161;28;20028;-91
2022/01/24 05:03:18;;;;;;;30.88;22.33;;;;;;;3.66;78.31;103208.44;5071330;28;20431;-91
2022/01/24 05:05:45;;;;;;;31.55;21.38;;;;;;;3.67;77.86;103204.75;5071511;28;20148;-91
2022/01/24 05:08:15;;;;;;;34.25;22.42;;;;;;;4.09;78.69;103268.00;5088472;28;20032;-91
2022/01/24 05:11:06;;;;;;;31.17;22.13;;;;;;;3.85;78.56;103239.28;5055865;28;20024;-91
2022/01/24 05:24:26;;;;;;;32.50;21.50;;;;;;;3.57;78.32;103209.06;5057828;28;20047;-91
2022/01/24 05:26:51;;;;;;;30.80;21.52;;;;;;;3.97;78.47;103264.41;5071791;28;20020;-91
2022/01/24 05:29:17;;;;;;;32.45;22.48;;;;;;;3.63;78.88;103215.84;5071625;28;20496;-92
2022/01/24 05:31:43;;;;;;;30.98;21.75;;;;;;;4.00;78.67;103265.03;5071847;28;20027;-92
2022/01/24 05:34:08;;;;;;;31.77;21.30;;;;;;;3.99;79.04;103257.09;5071883;28;20016;-91
2022/01/24 05:36:34;;;;;;;32.00;21.58;;;;;;;3.75;78.35;103224.81;5054814;28;20484;-91
2022/01/24 05:39:00;;;;;;;30.65;21.13;;;;;;;3.67;78.13;103225.38;5072602;28;20127;-91
2022/01/24 05:41:27;;;;;;;32.58;21.80;;;;;;;3.74;78.61;103239.25;5072490;28;20389;-91
2022/01/24 05:43:53;;;;;;;28.15;20.55;;;;;;;3.66;78.62;103218.28;5073331;28;20384;-91
2022/01/24 05:46:19;;;;;;;31.45;21.42;;;;;;;3.66;78.83;103221.84;5074447;28;20017;-91
2022/01/24 05:48:47;;;;;;;30.70;20.65;;;;;;;3.78;78.58;103248.75;5072538;28;20419;-90
2022/01/24 05:51:13;;;;;;;31.77;21.13;;;;;;;3.82;78.74;103263.69;5071972;28;20028;-90
2022/01/24 05:53:39;;;;;;;32.38;21.20;;;;;;;3.56;79.37;103223.50;5071538;28;20032;-90
2022/01/24 05:56:04;;;;;;;32.38;22.25;;;;;;;3.46;79.85;103214.38;5074999;28;20447;-92
2022/01/24 05:58:30;;;;;;;33.20;22.40;;;;;;;3.58;78.90;103226.06;5070978;28;20115;-88
2022/01/24 06:00:55;;;;;;;34.13;22.42;;;;;;;3.82;79.17;103278.00;5087656;28;20021;-89
2022/01/24 06:03:21;;;;;;;34.13;22.15;;;;;;;3.65;79.55;103249.66;5054129;28;20020;-89
2022/01/24 06:05:49;;;;;;;32.75;22.70;;;;;;;3.40;79.61;103218.34;5054138;28;20029;-89
2022/01/24 06:08:15;;;;;;;32.90;22.48;;;;;;;3.31;79.30;103205.59;5070824;28;20025;-90
2022/01/24 06:10:41;;;;;;;33.97;22.38;;;;;;;3.33;79.61;103209.03;5090678;28;20090;-88
2022/01/24 06:13:07;;;;;;;32.70;22.20;;;;;;;3.72;80.11;103270.69;5079121;28;20029;-91
2022/01/24 06:15:35;;;;;;;32.80;22.38;;;;;;;3.30;79.47;103206.56;5077554;28;20460;-92
2022/01/24 06:18:06;;;;;;;31.27;21.73;;;;;;;3.37;79.85;103213.22;5076644;28;20116;-91
2022/01/24 06:20:32;;;;;;;31.65;21.05;;;;;;;3.36;80.36;103214.16;5075793;28;20162;-90
2022/01/24 06:23:06;;;;;;;31.60;21.17;;;;;;;3.28;80.22;103203.16;5075185;28;20055;-95
2022/01/24 06:25:50;;;;;;;31.15;20.80;;;;;;;3.22;80.25;103193.69;5078002;28;20024;-96
2022/01/24 06:57:43;;;;;;;30.45;19.13;;;;;;;3.79;80.99;103277.34;4775352;30;20059;-96
2022/01/24 07:15:30;;;;;;;30.58;19.98;;;;;;;3.66;80.54;103288.09;4899965;29;20574;-96
2022/01/24 10:25:22;;;;;;;27.30;17.55;;;;;;;4.73;73.69;103270.38;5094134;28;20093;-94
2022/01/24 10:44:56;;;;;;;28.90;18.40;;;;;;;5.16;71.52;103323.56;5064637;28;20039;-92
2022/01/24 10:54:17;;;;;;;28.95;18.95;;;;;;;5.05;70.89;103248.22;5097796;28;20123;-92
2022/01/24 10:56:51;;;;;;;29.08;18.55;;;;;;;5.16;69.28;103258.13;5078808;28;20073;-91
2022/01/24 10:59:25;;;;;;;30.02;18.70;;;;;;;5.22;69.17;103280.03;5078247;28;20040;-91
2022/01/24 11:01:56;;;;;;;28.25;18.50;;;;;;;5.40;69.32;103311.88;5080688;28;20020;-93
2022/01/24 11:04:40;;;;;;;31.23;19.08;;;;;;;5.33;69.86;103306.13;5063053;28;20024;-91
2022/01/24 11:07:21;;;;;;;29.80;18.65;;;;;;;5.14;68.86;103273.53;5062411;28;20387;-92
2022/01/24 11:10:02;;;;;;;27.55;18.02;;;;;;;4.89;69.10;103238.63;5078472;28;20035;-90
2022/01/24 11:12:34;;;;;;;28.52;17.77;;;;;;;4.92;69.56;103242.94;5077899;28;20480;-92
2022/01/24 11:15:07;;;;;;;28.52;18.73;;;;;;;5.28;69.98;103305.59;5061851;28;20516;-90
2022/01/24 11:17:34;;;;;;;28.30;18.85;;;;;;;4.98;69.83;103229.00;5062282;28;20135;-91
2022/01/24 11:20:05;;;;;;;30.60;18.25;;;;;;;5.18;69.71;103242.72;5094535;28;20024;-92
2022/01/24 11:22:40;;;;;;;29.40;18.70;;;;;;;5.59;68.84;103281.66;5077501;28;20039;-91
2022/01/24 11:25:15;;;;;;;29.13;18.77;;;;;;;5.41;68.28;103243.59;5053851;28;20045;-91
2022/01/24 11:27:43;;;;;;;29.25;19.10;;;;;;;5.39;68.71;103237.47;5038375;28;20029;-91
2022/01/24 11:30:14;;;;;;;30.50;18.95;;;;;;;5.94;68.26;103297.66;5054427;28;20519;-91
2022/01/24 11:33:05;;;;;;;29.65;19.40;;;;;;;5.84;68.33;103248.19;5054197;28;20024;-93
2022/01/24 11:35:53;;;;;;;29.05;19.13;;;;;;;6.28;67.36;103294.06;5054354;28;20113;-92
2022/01/24 11:38:42;;;;;;;27.88;18.85;;;;;;;6.48;67.97;103290.56;5054530;28;20028;-93
2022/01/24 11:41:41;;;;;;;27.85;19.10;;;;;;;6.57;67.99;103294.34;5053923;28;20021;-93
2022/01/24 11:44:17;;;;;;;31.00;19.33;;;;;;;6.30;65.82;103239.03;5053878;28;20497;-92
2022/01/24 11:46:55;;;;;;;28.50;18.38;;;;;;;6.38;65.16;103229.44;5037439;28;20056;-93
2022/01/24 11:49:36;;;;;;;27.40;18.40;;;;;;;6.59;65.03;103269.94;5056103;28;20037;-92
2022/01/24 11:52:31;;;;;;;27.83;18.38;;;;;;;6.77;65.52;103286.41;5053693;28;20025;-93
2022/01/24 11:55:30;;;;;;;28.85;19.52;;;;;;;6.32;65.17;103218.19;5038578;28;20108;-92
2022/01/24 11:58:05;;;;;;;28.00;18.88;;;;;;;6.32;65.11;103220.03;5038909;28;20086;-94
2022/01/24 12:00:47;;;;;;;28.00;19.45;;;;;;;6.51;65.09;103254.41;5053601;28;20027;-94
2022/01/24 12:03:26;;;;;;;29.88;19.67;;;;;;;6.55;65.22;103253.13;5053113;28;20028;-92
2022/01/24 12:06:09;;;;;;;;;;;;;;;;;;;;;
2022/01/24 12:08:43;;;;;;;26.00;18.42;;;;;;;6.45;64.31;103209.06;5051000;28;20040;-92
2022/01/24 12:11:15;;;;;;;28.80;19.05;;;;;;;6.92;64.17;103271.59;5053529;28;20085;-92
2022/01/24 12:13:47;;;;;;;30.30;19.77;;;;;;;6.58;64.07;103198.09;5053513;28;20388;-92
2022/01/24 12:16:15;;;;;;;30.27;19.60;;;;;;;6.74;63.25;103198.47;5053170;28;20056;-90
2022/01/24 12:18:42;;;;;;;27.63;18.77;;;;;;;7.21;62.96;103265.53;5053277;28;20025;-91
2022/01/24 12:21:14;;;;;;;30.63;19.42;;;;;;;6.91;63.02;103202.41;5053209;28;20086;-90
2022/01/24 12:23:40;;;;;;;29.55;19.27;;;;;;;7.35;62.27;103262.47;5071774;28;20075;-89
2022/01/24 12:26:09;;;;;;;27.85;19.73;;;;;;;7.17;61.64;103262.22;5093407;28;20404;-90
2022/01/24 12:28:46;;;;;;;30.35;20.25;;;;;;;7.05;62.77;103248.94;5075728;28;20510;-90
2022/01/24 12:31:35;;;;;;;29.00;19.63;;;;;;;7.00;62.62;103220.50;5093825;28;20020;-89
2022/01/24 12:34:08;;;;;;;27.45;19.08;;;;;;;6.87;61.83;103192.88;5075388;28;20375;-89
2022/01/24 12:36:50;;;;;;;29.48;19.48;;;;;;;7.34;62.28;103263.47;5092680;28;20047;-89
2022/01/24 12:39:32;;;;;;;29.40;18.90;;;;;;;7.40;62.94;103258.50;5075612;28;20035;-89
2022/01/24 12:42:09;;;;;;;;;;;;;;;7.55;64.94;103252.59;5075897;28;20028;-89
2022/01/24 12:47:15;;;;;;;28.13;18.38;;;;;;;7.16;62.73;103213.75;5092709;28;20341;-90
2022/01/24 12:49:42;;;;;;;30.00;19.42;;;;;;;6.95;62.11;103181.41;5092065;28;20024;-89
2022/01/24 12:52:13;;;;;;;27.85;19.05;;;;;;;7.11;62.53;103205.22;5092637;28;20089;-89
2022/01/24 12:54:43;;;;;;;27.15;17.95;;;;;;;6.94;61.76;103176.97;5092283;28;20456;-90
2022/01/24 12:57:27;;;;;;;27.70;18.55;;;;;;;7.23;62.45;103241.09;5076021;28;20028;-91
2022/01/24 13:00:25;;;;;;;28.13;18.65;;;;;;;6.76;63.50;103179.44;5060937;28;20458;-91
2022/01/24 13:02:54;;;;;;;30.02;20.42;;;;;;;6.66;62.46;103174.00;5066245;28;20035;-92
2022/01/24 13:05:23;;;;;;;29.10;18.90;;;;;;;6.78;62.04;103170.25;5075727;28;20028;-93
2022/01/24 13:08:02;;;;;;;28.17;18.65;;;;;;;7.02;61.96;103182.59;5059180;28;20032;-92
2022/01/24 13:10:30;;;;;;;30.25;19.17;;;;;;;6.88;62.40;103154.13;5075616;28;20031;-92
2022/01/24 13:13:11;;;;;;;28.17;19.33;;;;;;;6.77;62.39;103151.50;5075492;28;20051;-92
2022/01/24 13:21:25;;;;;;;29.15;19.55;;;;;;;8.25;59.60;103203.94;5098291;28;20089;-93
2022/01/24 13:24:06;;;;;;;30.25;19.17;;;;;;;8.00;60.43;103143.16;5079791;28;20105;-93
2022/01/24 13:26:31;;;;;;;28.73;19.00;;;;;;;8.32;58.45;103174.47;5080046;28;20028;-93
2022/01/24 13:29:08;;;;;;;28.25;19.15;;;;;;;8.71;58.42;103219.59;5080273;28;20463;-93
2022/01/24 13:31:36;;;;;;;30.77;20.58;;;;;;;8.72;57.73;103178.84;5080849;28;20464;-92
2022/01/24 13:34:09;;;;;;;30.05;19.15;;;;;;;8.80;56.87;103161.00;5080323;28;20027;-90
2022/01/24 13:36:39;;;;;;;28.00;19.10;;;;;;;9.42;55.88;103188.41;5079508;28;20051;-93
2022/01/24 13:39:13;;;;;;;27.90;18.73;;;;;;;9.30;55.39;103149.84;5080533;28;20023;-93
2022/01/24 13:41:53;;;;;;;26.80;18.27;;;;;;;9.60;55.28;103199.31;5080660;28;20061;-93
2022/01/24 13:44:25;;;;;;;28.25;18.65;;;;;;;9.54;54.71;103184.53;5080285;28;20063;-91
2022/01/24 13:47:10;;;;;;;30.08;19.48;;;;;;;9.72;54.87;103189.97;5064788;28;20028;-91
2022/01/24 13:49:45;;;;;;;29.98;19.88;;;;;;;9.89;53.99;103210.00;5079855;28;20426;-94
2022/01/24 13:52:23;;;;;;;28.88;19.80;;;;;;;9.90;54.65;103186.44;5063439;28;20458;-93
2022/01/24 13:54:56;;;;;;;32.13;19.10;;;;;;;9.87;54.22;103193.00;5079638;28;20028;-93
2022/01/24 13:57:28;;;;;;;28.38;19.13;;;;;;;9.99;53.60;103185.50;5079461;28;20020;-93
2022/01/24 14:00:10;;;;;;;29.77;19.58;;;;;;;10.21;54.58;103189.59;5079644;28;20441;-93
2022/01/24 14:02:43;;;;;;;29.15;19.58;;;;;;;10.03;52.28;103148.09;5079431;28;20059;-94
2022/01/24 14:05:19;;;;;;;27.75;20.25;;;;;;;10.41;52.06;103198.47;5079449;28;20024;-93
2022/01/24 14:08:07;;;;;;;27.85;19.10;;;;;;;10.23;52.23;103159.59;5079152;28;20024;-93
2022/01/24 14:10:36;;;;;;;31.90;20.02;;;;;;;10.40;51.79;103153.34;5079182;28;20432;-94
2022/01/24 14:13:38;;;;;;;29.67;19.70;;;;;;;10.15;52.33;103141.41;5062652;28;20028;-94
2022/01/24 14:16:32;;;;;;;30.58;19.95;;;;;;;9.94;52.55;103147.16;5066828;28;20472;-94
2022/01/24 14:19:15;;;;;;;27.92;19.52;;;;;;;10.00;52.67;103168.22;5064883;28;20492;-94
2022/01/24 14:22:13;;;;;;;28.58;20.15;;;;;;;9.84;54.81;103158.06;5078792;28;20031;-93
2022/01/24 14:24:57;;;;;;;28.80;20.13;;;;;;;9.88;53.37;103188.47;5077351;28;20063;-93
2022/01/24 14:27:48;;;;;;;28.65;20.48;;;;;;;9.93;54.74;103178.81;5079268;28;20144;-94
2022/01/24 14:30:31;;;;;;;29.65;20.60;;;;;;;10.06;54.14;103191.19;5077937;28;20039;-91
2022/01/24 14:33:16;;;;;;;30.42;20.55;;;;;;;9.62;54.47;103124.13;5077840;28;20379;-95
2022/01/24 14:35:56;;;;;;;28.35;20.15;;;;;;;9.80;54.42;103171.09;5078945;28;20031;-96
2022/01/24 14:38:38;;;;;;;28.23;20.08;;;;;;;9.73;54.36;103180.84;5078735;28;20070;-93
2022/01/24 14:41:26;;;;;;;30.85;22.05;;;;;;;9.46;53.27;103166.31;5078546;28;20380;-92
2022/01/24 14:46:48;;;;;;;;;;;;;;;9.74;57.14;103193.38;5096800;28;20105;-95
2022/01/24 14:49:35;;;;;;;30.58;20.92;;;;;;;9.10;55.41;103120.13;5077927;28;20300;-94
2022/01/24 14:52:25;;;;;;;29.67;20.10;;;;;;;9.31;55.34;103132.59;5078209;28;20053;-94
2022/01/24 14:55:10;;;;;;;30.27;21.13;;;;;;;9.48;54.86;103175.13;5078536;28;20024;-94
2022/01/24 14:57:39;;;;;;;28.98;19.63;;;;;;;9.26;54.15;103143.03;5063105;28;20082;-94
2022/01/24 15:00:10;;;;;;;30.25;20.52;;;;;;;9.42;53.93;103148.66;5077850;28;20028;-93
2022/01/24 15:02:50;;;;;;;28.83;20.52;;;;;;;9.43;54.82;103123.25;5077764;28;20024;-94
2022/01/24 15:05:19;;;;;;;29.27;20.75;;;;;;;9.91;52.67;103134.75;5078094;28;20024;-93
2022/01/24 15:07:56;;;;;;;31.23;21.40;;;;;;;10.75;51.85;103158.81;5061048;28;20442;-94
2022/01/24 15:10:24;;;;;;;31.45;19.85;;;;;;;11.21;49.77;103122.22;5062202;28;20086;-94
2022/01/24 15:12:53;;;;;;;32.25;21.60;;;;;;;12.21;47.58;103132.31;5076913;28;20020;-94
2022/01/24 15:15:26;;;;;;;28.63;20.05;;;;;;;12.62;46.71;103115.94;5061281;28;20047;-94
2022/01/24 15:25:56;;;;;;;26.90;21.02;;;;;;;13.78;43.42;103121.72;5094661;28;20086;-91
2022/01/24 15:28:32;;;;;;;25.88;19.70;;;;;;;14.01;43.12;103159.94;5076279;28;20024;-92
2022/01/24 15:31:08;;;;;;;28.92;21.00;;;;;;;13.74;43.15;103123.09;5077846;28;20375;-91
2022/01/24 15:33:54;;;;;;;27.52;19.63;;;;;;;13.56;45.50;103128.00;5077341;28;20438;-91
2022/01/24 15:36:22;;;;;;;28.92;21.48;;;;;;;13.39;43.75;103130.81;5077076;28;20129;-91
2022/01/24 15:38:59;;;;;;;29.38;20.88;;;;;;;13.43;44.63;103177.66;5076849;28;20108;-94
2022/01/24 15:41:43;;;;;;;30.10;22.33;;;;;;;12.96;44.60;103147.50;5061008;28;20043;-94
2022/01/24 15:50:17;;;;;;;29.75;22.70;;;;;;;11.49;48.18;103121.16;5095222;28;20039;-91
2022/01/24 15:53:04;;;;;;;29.30;22.27;;;;;;;10.97;50.18;103116.69;5093050;28;20023;-92
2022/01/24 15:56:14;;;;;;;28.90;22.73;;;;;;;10.13;50.48;103113.59;5076932;28;20408;-90
2022/01/24 15:58:48;;;;;;;34.65;23.90;;;;;;;9.38;52.70;103109.31;5094668;28;20032;-91
2022/01/24 16:01:41;;;;;;;33.53;24.25;;;;;;;8.78;53.97;103124.13;5076999;28;20044;-92
2022/01/24 16:04:15;;;;;;;32.63;23.92;;;;;;;8.23;56.04;103142.88;5077127;28;20115;-92
2022/01/24 16:07:20;;;;;;;33.30;24.63;;;;;;;8.18;57.46;103181.16;5081284;28;20027;-94
2022/01/24 16:10:13;;;;;;;33.58;25.40;;;;;;;7.54;59.20;103177.09;5071577;28;20127;-91
2022/01/24 16:13:02;;;;;;;35.33;25.73;;;;;;;6.96;60.53;103151.56;5076712;28;20118;-91
2022/01/24 16:18:28;;;;;;;35.50;25.95;;;;;;;6.19;62.82;103158.22;5077186;28;20098;-92
2022/01/24 16:23:32;;;;;;;36.63;26.42;;;;;;;5.37;65.15;103113.72;5080208;28;20115;-91
2022/01/24 16:25:58;;;;;;;37.83;25.88;;;;;;;5.38;65.61;103155.84;5061320;28;20043;-90
2022/01/24 16:28:35;;;;;;;35.35;25.58;;;;;;;5.24;66.62;103186.56;5060944;28;20029;-90
2022/01/24 16:31:05;;;;;;;37.42;26.23;;;;;;;4.72;67.14;103137.75;5077445;28;20036;-92
2022/01/24 16:33:33;;;;;;;38.58;26.95;;;;;;;4.55;67.39;103140.91;5061698;28;20024;-91
2022/01/24 16:36:10;;;;;;;39.65;28.63;;;;;;;4.26;68.77;103140.47;5061539;28;20028;-92
2022/01/24 16:38:36;;;;;;;40.20;28.42;;;;;;;4.36;69.33;103182.63;5061110;28;20032;-92
2022/01/24 16:41:17;;;;;;;39.67;27.25;;;;;;;3.94;70.00;103152.69;5062617;28;20044;-92
2022/01/24 16:49:16;;;;;;;42.78;29.00;;;;;;;3.84;71.38;103213.44;5075822;28;20043;-93
2022/01/24 16:51:47;;;;;;;41.25;29.25;;;;;;;3.49;73.21;103206.94;5061815;28;20025;-91
2022/01/24 16:54:24;;;;;;;42.55;29.02;;;;;;;3.33;73.89;103198.28;5060821;28;20035;-91
2022/01/24 16:56:54;;;;;;;43.03;29.48;;;;;;;3.17;73.93;103201.22;5061327;28;20023;-91
2022/01/24 16:59:20;;;;;;;42.28;29.52;;;;;;;2.76;75.32;103156.69;5044022;28;20096;-91
2022/01/24 17:01:55;;;;;;;42.65;28.77;;;;;;;2.63;75.17;103159.41;5061865;28;20108;-91
2022/01/24 17:04:25;;;;;;;46.20;30.90;;;;;;;2.47;76.32;103156.91;5062154;28;20476;-91
2022/01/24 17:07:01;;;;;;;45.40;29.65;;;;;;;2.42;76.64;103161.72;5061757;28;20024;-91
2022/01/24 17:09:29;;;;;;;43.67;29.83;;;;;;;2.38;77.90;103182.50;5062466;28;20067;-90
2022/01/24 17:12:10;;;;;;;45.33;31.25;;;;;;;2.15;78.21;103161.78;5044638;28;20028;-91
2022/01/24 17:14:38;;;;;;;48.25;31.50;;;;;;;2.21;78.78;103196.19;5059897;28;20028;-92
2022/01/24 17:17:09;;;;;;;47.03;30.98;;;;;;;1.99;79.33;103173.50;5061351;28;20120;-91
2022/01/24 17:19:44;;;;;;;46.85;31.10;;;;;;;2.14;79.53;103221.66;5044654;28;20112;-91
2022/01/24 17:22:13;;;;;;;46.22;29.98;;;;;;;1.94;79.87;103207.75;5060256;28;20048;-91
2022/01/24 17:24:39;;;;;;;48.65;30.42;;;;;;;1.71;80.46;103186.03;5042656;28;20541;-91
2022/01/24 17:27:08;;;;;;;47.13;31.05;;;;;;;1.66;80.74;103185.47;5060185;28;20021;-90
2022/01/24 17:29:41;;;;;;;49.33;31.92;;;;;;;1.59;80.99;103181.47;5058800;28;20392;-91
2022/01/24 17:32:10;;;;;;;50.50;32.08;;;;;;;1.93;81.48;103248.88;5042298;28;20032;-90
2022/01/24 17:34:38;;;;;;;50.10;31.92;;;;;;;1.44;81.74;103182.47;5042870;28;20472;-91
2022/01/24 17:37:10;;;;;;;49.65;32.63;;;;;;;1.65;82.11;103239.09;5060138;28;20024;-91
2022/01/24 17:39:39;;;;;;;51.40;32.33;;;;;;;1.53;82.85;103228.19;5059437;28;20028;-90
2022/01/24 17:42:08;;;;;;;56.28;33.83;;;;;;;1.22;83.51;103191.84;5059846;28;20075;-91
2022/01/24 17:44:48;;;;;;;52.95;33.95;;;;;;;1.12;83.19;103178.19;5059010;28;20028;-91
2022/01/24 17:47:19;;;;;;;49.15;31.77;;;;;;;1.03;83.69;103179.63;5056473;28;20462;-91
2022/01/24 17:49:45;;;;;;;47.55;31.65;;;;;;;1.30;83.84;103236.81;5057422;28;20028;-91
2022/01/24 17:52:18;;;;;;;55.50;35.28;;;;;;;1.26;84.32;103246.00;5061059;28;20035;-91
2022/01/24 17:54:45;;;;;;;65.25;40.17;;;;;;;0.86;84.77;103183.34;5061665;28;20092;-90
2022/01/24 17:57:23;;;;;;;55.70;36.10;;;;;;;0.87;84.74;103197.53;5044226;28;20043;-91
2022/01/24 18:00:06;;;;;;;54.47;34.75;;;;;;;1.02;85.39;103235.88;5044724;28;20518;-92
2022/01/24 18:02:41;;;;;;;53.30;34.38;;;;;;;0.74;85.25;103192.09;5057657;28;20028;-91
2022/01/24 18:05:15;;;;;;;54.13;34.10;;;;;;;0.87;85.69;103217.13;5056891;28;20055;-91
2022/01/24 18:07:48;;;;;;;59.30;35.03;;;;;;;0.64;86.62;103188.28;5060703;28;20444;-91
2022/01/24 18:10:16;;;;;;;53.83;33.78;;;;;;;0.61;86.38;103202.66;5059864;28;20505;-91
2022/01/24 18:12:49;;;;;;;55.10;34.72;;;;;;;0.56;87.42;103201.22;5063749;28;20071;-92
2022/01/24 18:15:17;;;;;;;54.95;36.22;;;;;;;0.49;87.55;103198.91;5033054;28;20028;-91